AirNav   Air Wisconsin pilot careers
 
 650 users online  

CL35 Warner Springs Gliderport
Warner Springs, California, USA

GOING TO WARNER SPRINGS?


FAA INFORMATION EFFECTIVE 11 OCTOBER 2018

Location

FAA Identifier: CL35
Lat/Long: 33-17-04.2100N / 116-40-10.7650W
33-17.070167N / 116-40.179417W
33.2845028 / -116.6696569
(estimated)
Elevation: 2880 ft. / 878 m (estimated)
Variation: 13E (1985)
From city: 2 miles E of WARNER SPRINGS, CA
Time zone: UTC -7 (UTC -8 during Standard Time)
Zip code: 92086

Gliderport Operations

Gliderport use: Private use. Permission required prior to landing
Activation date: 10/1984
Control tower: no
ARTCC: LOS ANGELES CENTER
FSS: SAN DIEGO FLIGHT SERVICE STATION
Attendance: 0900-1700
Wind indicator: yes
Segmented circle: yes
Landing fee: yes

Gliderport Communications

UNICOM: 122.8
WX AWOS-3P at L08 (18 nm E): 126.575 (760-767-3308)
WX ASOS at RNM (19 nm SW): 132.025 (760-789-0736)

Nearby radio navigation aids

VOR radial/distance  VOR name  Freq  Var
JLIr319/9.6JULIAN VORTAC114.0015E
TRMr218/32.8THERMAL VORTAC116.2013E
PSPr186/37.1PALM SPRINGS VORTAC115.5013E
OCNr071/37.6OCEANSIDE VORTAC115.3015E
HDFr125/(39.2)HOMELAND VOR113.4014E

Gliderport Services

Runway Information

Runway 8/26

Dimensions: 3500 x 70 ft. / 1067 x 21 m
Surface: asphalt
RUNWAY 8  RUNWAY 26
Latitude: 33-17.060333N33-17.080000N
Longitude: 116-40.522667W116-39.836167W
Elevation: 2873.0 ft.2914.0 ft.
Traffic pattern: leftleft
Obstructions: none200 ft. hill, 5200 ft. from runway

Gliderport Ownership and Management from official FAA records

Ownership: Privately-owned
Owner: WARNER SPRINGS RANCH RESORT, LLC
31930 HWY 79
WARNER SPRINGS, CA 92086
Phone 760-782-4200
SKY SAILING 31930 HWY 79.
Manager: BRET WILLAT
SKY SAILING 31930 HWY 79
WARNER SPRINGS, CA 92086
Phone 760-782-0404
LEASEE.

Gliderport Operational Statistics

Aircraft based on the field: 80
Single engine airplanes: 10
Gliders airplanes: 70
    

Instrument Procedures

There are no published instrument procedures at CL35.

Some nearby airports with instrument procedures:

L08 - Borrego Valley Airport (18 nm E)
KRNM - Ramona Airport (19 nm SW)
F70 - French Valley Airport (29 nm NW)
L18 - Fallbrook Community Airpark (29 nm W)
KSEE - Gillespie Field Airport (31 nm SW)
 
Loc | Ops | Rwys | IFR | FBO | Links
Com | Nav | Svcs | Stats | Notes


 
Area around CL35 (Warner Springs Gliderport)
 
Road maps at: MapQuest Bing Google
 
Aerial photo
WARNING: Photo may not be current or correct
Aerial photo of CL35 (Warner Springs Gliderport)
Photo by Steve Lupinacci
Photo taken 27-May-2008

Do you have a better or more recent aerial photo of Warner Springs Gliderport that you would like to share? If so, please send us your photo.

 
Sectional chart

 
Airport distance calculator
Flying to Warner Springs Gliderport? Find the distance to fly.

From to CL35

Sunrise and sunset
Times for 23-Oct-2018
 Local
(UTC-7)
 Zulu
(UTC)
Morning civil twilight06:3313:33
Sunrise06:5913:59
Sunset18:0301:03
Evening civil twilight18:2901:29

Current date and time
Zulu (UTC)  24-Oct-2018 04:11:22
Local (UTC-7)  23-Oct-2018 21:11:22
 
METAR
KL08 
18nm E 
240355Z AUTO 34009KT 10SM CLR 26/09 A2982 RMK AO2
KRNM 
20nm SW 
240353Z AUTO 00000KT 5SM BR CLR 15/13 A2990 RMK AO2 SLP118 T01500128
KF70 
29nm NW 
240355Z AUTO 00000KT 7SM CLR 17/14 A2991 RMK AO1
KL18 
29nm W 
240355Z AUTO 00000KT 5SM BR OVC007 17/15 A2990 RMK AO2
KSEE 
32nm SW 
240247Z 29005KT 10SM SKC 18/15 A2989
KCRQ 
32nm W 
240353Z 00000KT 7SM SCT010 SCT016 18/16 A2988 RMK AO2 SLP117 T01830161
KTRM 
33nm NE 
240352Z AUTO 29003KT 10SM CLR 24/10 A2978 RMK AO2 SLP094 T02390100
KPSP 
33nm N 
240353Z 31007KT 10SM CLR 28/07 A2984 RMK AO2 SLP100 T02830067
KNFG 
33nm W 
240355Z 00000KT 7SM OVC010 18/17 A2989 RMK AO2 SLP119 T01830167
KNKX 
34nm SW 
240355Z 30004KT 7SM BKN010 19/15 A2989 RMK AO2 SLP117 T01890150
TAF
KCRQ 
32nm W 
231920Z 2319/2418 26005KT P6SM SCT015 TEMPO 2320/2324 BKN013 FM240000 VRB02KT P6SM BKN010 FM240200 VRB02KT 6SM BR OVC007 FM241200 VRB02KT 3SM BR OVC007 FM241600 VRB02KT P6SM SCT010
KTRM 
33nm NE 
231732Z 2318/2418 33007KT P6SM SCT250
KPSP 
33nm N 
231732Z 2318/2418 05006KT P6SM SCT250 FM240200 32006KT P6SM SKC
KNFG 
33nm W 
2321/2421 24010KT 9999 FEW025 QNH2982INS BECMG 2403/2405 VRB04KT 9999 BKN020 QNH2986INS BECMG 2416/2418 22010KT 9999 SCT025 QNH2985INS T23/2322Z T12/2411Z
KNKX 
34nm SW 
2400/2421 29007KT 9999 SCT011 QNH2986INS BECMG 2401/2403 VRB05KT 9999 BKN012 QNH2986INS TEMPO 2409/2415 OVC008 FM241630 30007KT 9999 FEW050 SCT100 QNH2988INS T16/2313Z T26/2321Z AMD 0044
NOTAMs
Click for the latest NOTAMs
NOTAMs are issued by the DoD/FAA and will open in a separate window not controlled by AirNav.

 

 
 

Would you like to see your business listed on this page?

 If your business provides an interesting product or service to pilots, flight crews, aircraft, or users of the Warner Springs Gliderport, you should consider listing it here.  To start the listing process, click on the button below
 
Add a business
 

Other Pages about Warner Springs Gliderport

www.agcsc.org/warner_springs_info.html
 
Update a link
 
Copyright © AirNav, LLC. All rights reserved. Privacy Policy  Contact